FAPP

Details ICAO FAPP
Name Polokwane Intl
Region South Africa
Timezone Africa/Johannesburg (UTC+2.0)
Plans Departing 8
Arriving 11
Stats Elevation 4,076 ft / 1,242 m (AMSL)
Location -23.849664° 29.456488°
Runways 2
Magnetic Variation 15.842° W
Sunrise 2018-05-25 04:35:30 UTC / 2018-05-25 06:35:30 Local
Sunset 2018-05-25 15:25:34 UTC / 2018-05-25 17:25:34 Local
Advertisement - Login to hide

Runways

ID Width Length Bearing (true) Bearing (mag) Surface Threshold Offset Overrun Length
01 148 ft / 45 m 8,406 ft / 2,562 m 359.00° 14.84° Asphalt 0 ft / 0 m 328 ft / 100 m
05 148 ft / 45 m 7,619 ft / 2,322 m 38.00° 53.84° Asphalt 0 ft / 0 m 0 ft / 0 m
19 148 ft / 45 m 8,406 ft / 2,562 m 179.00° 194.84° Asphalt 0 ft / 0 m 328 ft / 100 m
23 148 ft / 45 m 7,619 ft / 2,322 m 218.00° 233.84° Asphalt 0 ft / 0 m 2,804 ft / 855 m

Map

Weather


0- 5 10 15 20 25 30 35+ Temperature / ° C

Clouds and Precipitation
Forecast for 2018-05-25 18:00 UTC. Updated 3 hours ago

Ground ~20,000 ft ~40,000 ft Winds

METAR

FAPP 252000Z AUTO 21004KT //// // ////// 16/05 Q1022

TAF

Not found

Frequencies

Tower 124.30 MHz TWR
Warning: Do not use this data for real-world aviation or navigation. No guarantee of current accuracy is given.